Time;durP1;ratioP1;P1;durP2;ratioP2;P2;SDS_P1;SDS_P2;PMS_P1;PMS_P2;Temp;Humidity;BMP_temperature;BMP_pressure;BME280_temperature;BME280_humidity;BME280_pressure;Samples;Min_cycle;Max_cycle;Signal;HPM_P1;HPM_P2
2022/09/03 00:01:50;;;;;;;4.13;1.20;;;9.20;99.90;;;;;;5018018;28;20425;-81
2022/09/03 00:04:43;;;;;;;4.03;1.10;;;9.20;99.90;;;;;;5008650;28;20395;-80
2022/09/03 00:07:21;;;;;;;2.28;1.08;;;9.20;99.90;;;;;;5014693;28;20893;-81
2022/09/03 00:09:56;;;;;;;2.85;1.20;;;9.20;99.90;;;;;;5019185;28;20414;-81
2022/09/03 00:12:28;;;;;;;1.37;1.00;;;9.10;99.90;;;;;;5019251;28;20405;-81
2022/09/03 00:15:09;;;;;;;1.83;1.00;;;9.10;99.90;;;;;;5018133;28;20820;-81
2022/09/03 00:17:43;;;;;;;1.63;1.02;;;9.10;99.90;;;;;;5008815;28;20884;-80
2022/09/03 00:20:45;;;;;;;3.45;1.10;;;9.10;99.90;;;;;;5008374;28;20495;-82
2022/09/03 00:23:22;;;;;;;1.67;1.10;;;9.00;99.90;;;;;;5012772;28;20500;-82
2022/09/03 00:26:07;;;;;;;1.20;0.95;;;9.10;99.90;;;;;;5019133;28;20389;-82
2022/09/03 00:28:43;;;;;;;2.78;1.00;;;9.10;99.90;;;;;;5017952;28;20477;-80
2022/09/03 00:31:25;;;;;;;2.13;1.00;;;9.00;99.90;;;;;;5019195;28;20389;-81
2022/09/03 00:34:01;;;;;;;2.65;0.93;;;9.00;99.90;;;;;;5020422;28;20397;-81
2022/09/03 00:36:41;;;;;;;4.50;1.13;;;9.00;99.90;;;;;;5020025;28;20397;-80
2022/09/03 00:39:12;;;;;;;1.27;0.95;;;9.00;99.90;;;;;;5046314;28;20520;-80
2022/09/03 00:42:22;;;;;;;2.00;1.00;;;9.00;99.90;;;;;;5020231;28;20407;-81
2022/09/03 00:45:14;;;;;;;1.98;1.05;;;8.90;99.90;;;;;;5018919;28;20889;-81
2022/09/03 00:48:06;;;;;;;1.88;0.90;;;8.90;99.90;;;;;;5026794;28;20407;-80
2022/09/03 00:50:59;;;;;;;1.95;1.10;;;8.90;99.90;;;;;;5016728;28;20395;-81
2022/09/03 00:54:04;;;;;;;0.93;0.85;;;8.80;99.90;;;;;;5019570;28;20494;-81
2022/09/03 00:56:44;;;;;;;1.95;1.00;;;8.80;99.90;;;;;;5015245;28;20485;-81
2022/09/03 00:59:30;;;;;;;2.03;0.90;;;8.80;99.90;;;;;;5015697;28;20971;-81
2022/09/03 01:02:40;;;;;;;1.02;0.93;;;8.70;99.90;;;;;;5016398;28;20392;-82
2022/09/03 01:05:36;;;;;;;1.70;0.90;;;8.70;99.90;;;;;;5018295;28;20399;-80
2022/09/03 01:08:49;;;;;;;1.60;0.80;;;8.60;99.90;;;;;;5019754;28;20405;-81
2022/09/03 01:11:40;;;;;;;1.40;0.90;;;8.60;99.90;;;;;;5019233;28;20402;-80
2022/09/03 01:14:10;;;;;;;1.27;0.70;;;8.60;99.90;;;;;;5019430;28;20431;-81
2022/09/03 01:16:58;;;;;;;1.90;0.90;;;8.50;99.90;;;;;;5020739;28;20414;-81
2022/09/03 01:19:44;;;;;;;1.90;0.90;;;8.50;99.90;;;;;;5019267;28;20418;-80
2022/09/03 01:22:21;;;;;;;1.73;0.80;;;8.50;99.90;;;;;;5019494;28;20480;-81
2022/09/03 01:25:08;;;;;;;2.80;1.00;;;8.40;99.90;;;;;;5019188;28;20411;-81
2022/09/03 01:28:05;;;;;;;1.08;0.98;;;8.40;99.90;;;;;;5015713;28;20391;-80
2022/09/03 01:30:38;;;;;;;2.20;0.90;;;8.30;99.90;;;;;;5008239;28;20514;-80
2022/09/03 01:33:30;;;;;;;1.25;0.90;;;8.30;99.90;;;;;;5012763;28;20403;-81
2022/09/03 01:36:33;;;;;;;1.50;0.90;;;8.20;99.90;;;;;;5014253;28;20418;-81
2022/09/03 01:39:05;;;;;;;1.50;0.80;;;8.20;99.90;;;;;;5018927;28;20434;-81
2022/09/03 01:44:43;;;;;;;1.90;0.80;;;8.20;99.90;;;;;;5022710;28;20441;-81
2022/09/03 01:47:37;;;;;;;1.30;0.80;;;8.10;99.90;;;;;;5022637;28;20402;-81
2022/09/03 01:50:04;;;;;;;1.10;0.80;;;8.00;99.90;;;;;;5022524;28;20496;-81
2022/09/03 01:52:51;;;;;;;2.15;1.00;;;8.00;99.90;;;;;;5021623;28;20412;-80
2022/09/03 01:55:43;;;;;;;2.10;0.80;;;8.00;99.90;;;;;;5054186;28;20458;-81
2022/09/03 01:58:30;;;;;;;2.15;0.70;;;7.90;99.90;;;;;;5019922;28;20926;-81
2022/09/03 02:01:06;;;;;;;1.33;0.70;;;7.90;99.90;;;;;;5022114;28;20410;-80
2022/09/03 02:03:43;;;;;;;2.08;0.85;;;7.90;99.90;;;;;;5014571;28;20751;-80
2022/09/03 02:06:12;;;;;;;1.13;0.70;;;7.90;99.90;;;;;;5020427;28;20395;-80
2022/09/03 02:08:40;;;;;;;0.93;0.60;;;7.80;99.90;;;;;;5020338;28;20899;-80
2022/09/03 02:11:09;;;;;;;1.27;0.80;;;7.80;99.90;;;;;;5017926;28;20403;-81
2022/09/03 02:13:48;;;;;;;1.10;0.80;;;7.80;99.90;;;;;;5022028;28;20409;-81
2022/09/03 02:16:20;;;;;;;2.10;0.80;;;7.80;99.90;;;;;;5053973;27;20810;-81
2022/09/03 02:19:10;;;;;;;1.02;0.80;;;7.80;99.90;;;;;;5019578;28;20456;-79
2022/09/03 02:21:45;;;;;;;1.50;0.90;;;7.80;99.90;;;;;;5020223;28;20439;-81
2022/09/03 02:24:13;;;;;;;1.45;0.90;;;7.80;99.90;;;;;;5019661;28;20390;-81
2022/09/03 02:26:40;;;;;;;1.33;0.80;;;7.90;99.90;;;;;;5021835;28;20440;-81
2022/09/03 02:29:08;;;;;;;2.38;0.73;;;7.90;99.90;;;;;;5021918;28;20398;-80
2022/09/03 02:31:36;;;;;;;1.95;0.80;;;7.80;99.90;;;;;;5020839;28;20401;-80
2022/09/03 02:34:04;;;;;;;2.05;0.75;;;7.70;99.90;;;;;;5013595;28;20393;-80
2022/09/03 02:36:44;;;;;;;1.07;0.90;;;7.70;99.90;;;;;;5018262;28;20386;-81
2022/09/03 02:39:14;;;;;;;1.60;0.80;;;7.70;99.90;;;;;;5019461;28;20393;-81
2022/09/03 02:41:41;;;;;;;2.60;0.90;;;7.60;99.90;;;;;;5006773;28;20439;-80
2022/09/03 02:44:22;;;;;;;1.40;0.70;;;7.70;99.90;;;;;;5019753;28;20491;-79
2022/09/03 02:46:59;;;;;;;1.23;0.85;;;7.60;99.90;;;;;;5024261;28;20477;-81
2022/09/03 02:49:27;;;;;;;1.40;0.80;;;7.60;99.90;;;;;;5024019;28;20620;-81
2022/09/03 02:52:08;;;;;;;1.90;0.90;;;7.60;99.90;;;;;;5019587;28;20403;-81
2022/09/03 02:54:38;;;;;;;0.98;0.70;;;7.60;99.90;;;;;;5019446;28;20401;-80
2022/09/03 02:57:09;;;;;;;1.90;0.80;;;7.50;99.90;;;;;;5019582;28;20401;-80
2022/09/03 02:59:38;;;;;;;1.33;0.80;;;7.60;99.90;;;;;;5018442;28;20811;-80
2022/09/03 03:02:06;;;;;;;3.13;1.08;;;7.70;99.90;;;;;;5026664;28;20456;-80
2022/09/03 03:04:34;;;;;;;1.98;0.88;;;7.70;99.90;;;;;;5021102;28;20410;-80
2022/09/03 03:07:01;;;;;;;2.25;0.80;;;7.70;99.90;;;;;;5020161;28;20397;-81
2022/09/03 03:09:29;;;;;;;1.60;0.90;;;7.60;99.90;;;;;;5017906;28;20394;-80
2022/09/03 03:11:56;;;;;;;2.20;0.90;;;7.60;99.90;;;;;;5017828;28;20399;-81
2022/09/03 03:14:24;;;;;;;1.33;0.73;;;7.50;99.90;;;;;;5019098;28;20832;-80
2022/09/03 03:16:54;;;;;;;1.50;0.90;;;7.50;99.90;;;;;;5020598;28;20407;-80
2022/09/03 03:19:22;;;;;;;1.63;0.85;;;7.50;99.90;;;;;;5020847;28;20394;-80
2022/09/03 03:21:49;;;;;;;1.50;0.80;;;7.40;99.90;;;;;;5013845;28;20405;-80
2022/09/03 03:24:17;;;;;;;1.65;0.82;;;7.40;99.90;;;;;;5011364;28;20759;-80
2022/09/03 03:26:44;;;;;;;1.75;1.00;;;7.30;99.90;;;;;;5013079;28;20395;-80
2022/09/03 03:29:18;;;;;;;1.42;1.00;;;7.30;99.90;;;;;;5021281;28;20382;-81
2022/09/03 03:31:46;;;;;;;1.50;1.02;;;7.30;99.90;;;;;;5018528;28;20494;-81
2022/09/03 03:34:13;;;;;;;1.95;0.98;;;7.30;99.90;;;;;;5014812;28;20434;-80
2022/09/03 03:36:41;;;;;;;1.08;0.90;;;7.30;99.90;;;;;;5018799;28;20409;-81
2022/09/03 03:39:08;;;;;;;2.33;1.08;;;7.30;99.90;;;;;;5015093;28;20440;-81
2022/09/03 03:41:37;;;;;;;2.83;0.90;;;7.30;99.90;;;;;;5011898;28;20411;-80
2022/09/03 03:44:07;;;;;;;5.13;1.00;;;7.20;99.90;;;;;;5012174;28;20400;-80
2022/09/03 03:46:39;;;;;;;1.50;1.00;;;7.20;99.90;;;;;;5050368;28;20403;-80
2022/09/03 03:49:09;;;;;;;2.65;0.90;;;7.20;99.90;;;;;;5016899;28;20416;-81
2022/09/03 03:51:38;;;;;;;2.20;0.93;;;7.20;99.90;;;;;;5016615;28;20962;-81
2022/09/03 03:54:05;;;;;;;3.15;0.95;;;7.20;99.90;;;;;;5019927;28;20914;-79
2022/09/03 03:56:33;;;;;;;1.80;0.90;;;7.30;99.90;;;;;;5018515;28;20405;-80
2022/09/03 03:59:01;;;;;;;1.92;0.90;;;7.30;99.90;;;;;;5018651;28;20455;-81
2022/09/03 04:01:29;;;;;;;1.95;1.30;;;7.40;99.90;;;;;;5025332;28;20809;-81
2022/09/03 04:03:58;;;;;;;2.83;1.10;;;7.40;99.90;;;;;;5017168;28;20482;-81
2022/09/03 04:06:27;;;;;;;3.08;0.95;;;7.40;99.90;;;;;;5022774;28;20405;-80
2022/09/03 04:08:55;;;;;;;3.97;1.00;;;7.40;99.90;;;;;;5018668;28;20405;-80
2022/09/03 04:11:24;;;;;;;2.10;0.90;;;7.40;99.90;;;;;;5018251;28;20821;-81
2022/09/03 04:13:52;;;;;;;2.35;1.00;;;7.40;99.90;;;;;;5018500;28;20412;-80
2022/09/03 04:16:27;;;;;;;1.40;1.10;;;7.40;99.90;;;;;;5014707;28;20395;-80
2022/09/03 04:18:55;;;;;;;1.52;0.90;;;7.40;99.90;;;;;;5020182;28;20869;-81
2022/09/03 04:21:25;;;;;;;2.03;1.10;;;7.40;99.90;;;;;;5008934;28;20410;-80
2022/09/03 04:23:56;;;;;;;1.63;1.00;;;7.40;99.90;;;;;;5008630;28;20411;-81
2022/09/03 04:26:30;;;;;;;1.83;0.98;;;7.40;99.90;;;;;;5010837;28;20896;-80
2022/09/03 04:29:08;;;;;;;1.67;1.08;;;7.40;99.90;;;;;;5052403;28;20412;-81
2022/09/03 04:31:37;;;;;;;1.80;0.95;;;7.40;99.90;;;;;;5016601;28;20399;-81
2022/09/03 04:34:06;;;;;;;1.40;1.05;;;7.40;99.90;;;;;;5019286;28;20405;-81
2022/09/03 04:36:33;;;;;;;1.85;0.90;;;7.40;99.90;;;;;;5017900;28;20405;-81
2022/09/03 04:39:01;;;;;;;1.05;0.80;;;7.30;99.90;;;;;;5015035;28;20403;-81
2022/09/03 04:41:30;;;;;;;1.20;0.93;;;7.30;99.90;;;;;;5017832;28;20443;-80
2022/09/03 04:43:58;;;;;;;1.50;0.90;;;7.30;99.90;;;;;;5018951;28;21046;-81
2022/09/03 04:46:32;;;;;;;1.10;0.90;;;7.40;99.90;;;;;;5018403;28;20387;-80
2022/09/03 04:49:01;;;;;;;1.95;1.00;;;7.40;99.90;;;;;;5013002;28;20761;-81
2022/09/03 04:51:29;;;;;;;2.00;1.05;;;7.40;99.90;;;;;;5017706;28;20415;-80
2022/09/03 04:54:00;;;;;;;1.45;1.00;;;7.40;99.90;;;;;;5014463;28;20506;-81
2022/09/03 04:56:35;;;;;;;1.90;1.00;;;7.40;99.90;;;;;;5015307;28;20403;-80
2022/09/03 04:59:05;;;;;;;2.92;0.90;;;7.50;99.90;;;;;;5007826;28;20403;-80
2022/09/03 05:01:35;;;;;;;0.98;0.80;;;7.40;99.90;;;;;;5020565;28;20926;-81
2022/09/03 05:04:04;;;;;;;1.40;0.80;;;7.50;99.90;;;;;;5018344;28;20498;-80
2022/09/03 05:06:33;;;;;;;1.20;0.90;;;7.50;99.90;;;;;;5022931;28;20930;-80
2022/09/03 05:09:01;;;;;;;1.95;0.80;;;7.50;99.90;;;;;;5024432;28;20421;-80
2022/09/03 05:11:29;;;;;;;1.42;1.00;;;7.50;99.90;;;;;;5021397;28;20905;-81
2022/09/03 05:13:59;;;;;;;1.35;0.80;;;7.50;99.90;;;;;;5020844;28;20440;-81
2022/09/03 05:16:29;;;;;;;2.60;1.02;;;7.40;99.90;;;;;;5015808;27;21113;-80
2022/09/03 05:18:59;;;;;;;3.33;0.98;;;7.40;99.90;;;;;;5016186;28;20430;-81
2022/09/03 05:21:28;;;;;;;1.30;0.88;;;7.40;99.90;;;;;;5023320;28;20413;-80
2022/09/03 05:23:58;;;;;;;1.55;0.90;;;7.40;99.90;;;;;;5016651;28;20421;-80
2022/09/03 05:26:28;;;;;;;1.80;0.90;;;7.40;99.90;;;;;;5025790;28;20401;-80
2022/09/03 05:28:58;;;;;;;2.00;1.00;;;7.50;99.90;;;;;;5019329;28;20881;-81
2022/09/03 05:31:27;;;;;;;1.33;1.00;;;7.40;99.90;;;;;;5027607;27;20933;-80
2022/09/03 05:33:57;;;;;;;1.50;1.00;;;7.40;99.90;;;;;;5011188;28;20433;-80
2022/09/03 05:36:28;;;;;;;2.70;0.90;;;7.40;99.90;;;;;;5011212;28;20395;-81
2022/09/03 05:38:58;;;;;;;2.30;1.20;;;7.40;99.90;;;;;;5019502;28;20401;-80
2022/09/03 05:41:26;;;;;;;1.42;0.90;;;7.50;99.90;;;;;;5028939;27;20409;-80
2022/09/03 05:43:57;;;;;;;1.57;1.30;;;7.60;99.90;;;;;;5024791;28;20799;-79
2022/09/03 05:46:32;;;;;;;3.08;1.38;;;7.60;99.90;;;;;;5028033;28;20410;-81
2022/09/03 05:49:05;;;;;;;2.40;1.20;;;7.60;99.90;;;;;;5022693;28;20402;-81
2022/09/03 05:51:35;;;;;;;1.05;0.95;;;7.60;99.90;;;;;;5025362;28;20443;-79
2022/09/03 05:54:04;;;;;;;1.97;1.07;;;7.60;99.90;;;;;;5024497;27;20490;-80
2022/09/03 05:56:34;;;;;;;1.50;1.05;;;7.70;99.90;;;;;;5026716;28;20972;-82
2022/09/03 05:59:07;;;;;;;2.00;1.13;;;7.80;99.90;;;;;;5014558;27;20452;-81
2022/09/03 06:01:41;;;;;;;2.60;1.00;;;7.80;99.90;;;;;;5017016;28;20403;-81
2022/09/03 06:04:18;;;;;;;1.50;1.00;;;7.80;99.90;;;;;;5026028;28;20387;-81
2022/09/03 06:06:47;;;;;;;2.70;1.50;;;7.90;99.90;;;;;;5020021;28;20440;-81
2022/09/03 06:09:17;;;;;;;1.80;1.10;;;8.00;99.90;;;;;;5024746;28;20402;-81
2022/09/03 06:11:46;;;;;;;1.85;1.00;;;8.00;99.90;;;;;;5020317;28;20459;-81
2022/09/03 06:14:16;;;;;;;2.00;1.00;;;8.10;99.90;;;;;;5019499;28;20444;-82
2022/09/03 06:16:49;;;;;;;1.60;1.00;;;8.20;99.90;;;;;;5020271;28;20399;-82
2022/09/03 06:19:17;;;;;;;1.70;1.00;;;8.20;99.90;;;;;;5010747;28;20414;-81
2022/09/03 06:21:46;;;;;;;1.15;0.90;;;8.30;99.90;;;;;;5016090;28;20404;-81
2022/09/03 06:24:26;;;;;;;3.37;1.40;;;8.40;99.90;;;;;;5010553;28;20407;-80
2022/09/03 06:26:58;;;;;;;1.65;0.80;;;8.40;99.90;;;;;;5015603;28;20399;-82
2022/09/03 06:29:26;;;;;;;4.25;2.17;;;8.40;99.90;;;;;;5029945;28;20403;-82
2022/09/03 06:31:54;;;;;;;2.30;1.00;;;8.50;99.90;;;;;;5019094;28;20390;-83
2022/09/03 06:34:25;;;;;;;1.13;0.90;;;8.50;99.90;;;;;;5010596;28;20388;-82
2022/09/03 06:36:53;;;;;;;1.20;0.88;;;8.60;99.90;;;;;;5015015;28;20396;-82
2022/09/03 06:39:21;;;;;;;1.90;0.90;;;8.70;99.90;;;;;;5021912;28;20401;-82
2022/09/03 06:41:50;;;;;;;1.33;0.85;;;8.70;99.90;;;;;;5013373;28;20419;-83
2022/09/03 06:44:26;;;;;;;1.33;0.90;;;8.80;99.90;;;;;;5015526;28;20423;-83
2022/09/03 06:46:54;;;;;;;1.23;0.80;;;8.80;99.90;;;;;;5019531;28;20391;-83
2022/09/03 06:49:24;;;;;;;2.58;1.65;;;8.80;99.90;;;;;;5013183;28;20444;-82
2022/09/03 06:51:52;;;;;;;1.10;0.83;;;8.90;99.90;;;;;;5020761;28;20412;-82
2022/09/03 06:54:19;;;;;;;1.83;0.70;;;8.90;99.90;;;;;;5024112;28;20453;-82
2022/09/03 06:56:46;;;;;;;1.77;0.80;;;8.90;99.90;;;;;;5018368;28;20469;-81
2022/09/03 06:59:14;;;;;;;1.38;1.00;;;9.00;99.90;;;;;;5019948;28;20474;-83
2022/09/03 07:01:44;;;;;;;1.77;1.00;;;9.10;99.90;;;;;;5023998;28;20414;-83
2022/09/03 07:04:18;;;;;;;0.88;0.70;;;9.10;99.90;;;;;;5021724;28;20466;-83
2022/09/03 07:06:46;;;;;;;1.08;0.68;;;9.10;99.90;;;;;;5018764;28;20861;-83
2022/09/03 07:09:16;;;;;;;2.25;1.10;;;9.20;99.90;;;;;;5022467;28;20488;-82
2022/09/03 07:11:48;;;;;;;1.00;0.80;;;9.20;99.90;;;;;;5021377;27;20407;-83
2022/09/03 07:14:20;;;;;;;1.60;0.80;;;9.40;99.90;;;;;;5017850;28;20411;-83
2022/09/03 07:16:49;;;;;;;1.77;0.80;;;9.50;99.90;;;;;;5021701;28;20406;-82
2022/09/03 07:19:17;;;;;;;1.70;0.77;;;9.60;99.90;;;;;;5025018;28;20464;-83
2022/09/03 07:21:44;;;;;;;2.15;0.73;;;9.70;99.90;;;;;;5009231;28;20407;-82
2022/09/03 07:24:18;;;;;;;0.90;0.70;;;9.70;99.90;;;;;;5019158;28;20492;-82
2022/09/03 07:26:47;;;;;;;1.10;0.73;;;9.80;99.90;;;;;;5016811;28;20383;-83
2022/09/03 07:29:18;;;;;;;0.80;0.80;;;9.80;99.90;;;;;;5020367;28;20404;-81
2022/09/03 07:31:50;;;;;;;1.30;0.80;;;9.70;99.90;;;;;;5014971;28;20445;-82
2022/09/03 07:34:20;;;;;;;1.65;1.05;;;9.70;99.90;;;;;;5020788;28;20782;-79
2022/09/03 07:36:49;;;;;;;1.63;0.90;;;9.60;99.90;;;;;;5009872;28;20395;-81
2022/09/03 07:39:18;;;;;;;1.73;1.00;;;9.60;99.90;;;;;;5009397;28;20446;-81
2022/09/03 07:41:47;;;;;;;1.23;0.87;;;9.70;99.90;;;;;;5015264;28;20415;-80
2022/09/03 07:44:18;;;;;;;1.48;0.90;;;9.80;99.90;;;;;;5009360;28;20403;-79
2022/09/03 07:46:49;;;;;;;1.50;0.60;;;9.80;99.90;;;;;;5009841;28;20775;-81
2022/09/03 07:49:20;;;;;;;0.93;0.50;;;9.80;99.90;;;;;;5015450;28;20764;-81
2022/09/03 07:51:51;;;;;;;1.45;0.80;;;9.90;99.90;;;;;;5040223;28;20402;-81
2022/09/03 07:54:19;;;;;;;1.70;0.85;;;9.80;99.90;;;;;;5017123;28;20416;-81
2022/09/03 07:56:47;;;;;;;1.30;0.93;;;9.80;99.90;;;;;;5050667;28;20395;-81
2022/09/03 07:59:14;;;;;;;3.90;0.93;;;9.90;99.90;;;;;;5016765;28;20394;-80
2022/09/03 08:01:42;;;;;;;2.45;1.42;;;10.00;99.90;;;;;;5009504;28;20411;-81
2022/09/03 08:04:10;;;;;;;7.05;2.33;;;10.00;99.90;;;;;;5017365;28;20487;-80
2022/09/03 08:06:38;;;;;;;0.73;0.50;;;10.10;99.90;;;;;;5040785;28;20404;-80
2022/09/03 08:09:08;;;;;;;1.77;0.60;;;10.20;99.90;;;;;;5017196;28;20480;-80
2022/09/03 08:11:39;;;;;;;0.73;0.60;;;10.50;99.90;;;;;;5018229;28;20500;-80
2022/09/03 08:14:08;;;;;;;0.90;0.50;;;10.40;99.90;;;;;;5018426;28;20488;-79
2022/09/03 08:16:38;;;;;;;1.75;0.70;;;10.50;99.90;;;;;;5018296;28;20489;-79
2022/09/03 08:19:06;;;;;;;0.60;0.50;;;10.50;99.90;;;;;;5016555;28;20411;-81
2022/09/03 08:21:35;;;;;;;0.60;0.60;;;10.40;99.90;;;;;;5017685;28;20478;-80
2022/09/03 08:24:03;;;;;;;1.05;0.73;;;10.50;99.90;;;;;;5017980;28;20394;-81
2022/09/03 08:26:35;;;;;;;0.95;0.68;;;10.50;99.90;;;;;;5052009;28;20395;-80
2022/09/03 08:29:05;;;;;;;0.57;0.50;;;10.60;99.90;;;;;;5003590;28;20414;-81
2022/09/03 08:31:35;;;;;;;1.13;0.50;;;10.60;99.90;;;;;;5020234;28;20412;-80
2022/09/03 08:34:05;;;;;;;1.00;0.50;;;10.60;99.90;;;;;;5020343;28;20458;-80
2022/09/03 08:36:35;;;;;;;0.85;0.50;;;10.70;99.90;;;;;;5018201;28;20408;-80
2022/09/03 08:39:08;;;;;;;1.70;0.50;;;10.60;99.90;;;;;;5013437;28;20403;-79
2022/09/03 08:41:49;;;;;;;0.65;0.50;;;10.60;99.90;;;;;;5013564;28;20453;-80
2022/09/03 08:44:28;;;;;;;1.50;0.50;;;10.70;99.90;;;;;;5017103;28;20393;-80
2022/09/03 08:47:12;;;;;;;0.52;0.50;;;10.80;99.90;;;;;;5007672;28;20388;-81
2022/09/03 08:49:46;;;;;;;0.97;0.50;;;11.00;99.90;;;;;;5013272;28;20502;-80
2022/09/03 08:52:49;;;;;;;0.60;0.60;;;10.90;99.90;;;;;;5013939;28;20460;-79
2022/09/03 08:55:19;;;;;;;0.50;0.50;;;10.90;99.90;;;;;;5013793;28;20435;-80
2022/09/03 08:58:08;;;;;;;1.02;0.60;;;10.80;99.90;;;;;;5014206;28;20728;-79
2022/09/03 09:01:14;;;;;;;0.60;0.50;;;10.80;99.90;;;;;;5018047;28;20868;-80
2022/09/03 09:04:28;;;;;;;1.20;0.50;;;11.10;99.90;;;;;;5022337;28;20433;-80
2022/09/03 09:06:59;;;;;;;0.90;0.55;;;11.40;99.90;;;;;;5051035;28;20944;-81
2022/09/03 09:09:39;;;;;;;1.05;0.60;;;11.40;99.90;;;;;;5019685;28;20406;-80
2022/09/03 09:12:20;;;;;;;1.60;0.50;;;11.20;99.90;;;;;;5019541;28;20796;-79
2022/09/03 09:15:05;;;;;;;0.90;0.50;;;11.40;99.90;;;;;;5019603;28;20402;-80
2022/09/03 09:18:01;;;;;;;1.17;0.40;;;11.70;99.90;;;;;;5018612;28;20410;-81
2022/09/03 09:20:41;;;;;;;1.25;0.50;;;11.60;99.90;;;;;;5019318;28;20498;-80
2022/09/03 09:23:31;;;;;;;1.30;0.43;;;11.50;99.90;;;;;;5019042;28;20417;-80
2022/09/03 09:26:05;;;;;;;0.40;0.40;;;11.80;99.90;;;;;;5019172;28;20947;-80
2022/09/03 09:28:36;;;;;;;1.77;0.50;;;12.00;99.90;;;;;;5018418;28;20497;-81
2022/09/03 09:31:07;;;;;;;1.10;0.40;;;12.00;99.90;;;;;;5017423;28;20401;-80
2022/09/03 09:33:35;;;;;;;0.40;0.40;;;12.00;99.90;;;;;;5012499;28;20494;-80
2022/09/03 09:36:12;;;;;;;0.80;0.50;;;12.00;99.90;;;;;;5007793;28;20902;-80
2022/09/03 09:38:40;;;;;;;0.70;0.40;;;12.00;99.90;;;;;;5008363;28;20475;-80
2022/09/03 09:41:19;;;;;;;0.47;0.47;;;12.00;99.90;;;;;;5007752;28;20404;-80
2022/09/03 09:43:47;;;;;;;1.40;0.50;;;12.00;99.90;;;;;;5007241;28;20403;-78
2022/09/03 09:46:21;;;;;;;1.38;0.50;;;11.90;99.90;;;;;;5018236;28;20399;-80
2022/09/03 09:48:52;;;;;;;0.60;0.50;;;11.90;99.90;;;;;;5019386;28;20401;-79
2022/09/03 09:51:30;;;;;;;2.22;0.45;;;11.90;99.90;;;;;;5019191;28;20397;-80
2022/09/03 09:54:20;;;;;;;1.38;0.55;;;12.10;99.90;;;;;;5047980;28;20407;-80
2022/09/03 09:56:59;;;;;;;1.38;0.40;;;12.20;99.90;;;;;;5024123;28;20425;-80
2022/09/03 09:59:26;;;;;;;0.50;0.47;;;12.20;99.90;;;;;;5018720;28;20405;-81
2022/09/03 10:02:08;;;;;;;0.50;0.40;;;12.20;99.90;;;;;;5015021;28;20426;-80
2022/09/03 10:04:36;;;;;;;0.75;0.40;;;12.10;99.90;;;;;;5021455;28;20477;-81
2022/09/03 10:07:30;;;;;;;0.40;0.40;;;12.10;99.90;;;;;;5019980;28;20386;-80
2022/09/03 10:10:02;;;;;;;0.52;0.50;;;12.20;99.90;;;;;;5021523;28;20395;-81
2022/09/03 10:12:38;;;;;;;0.60;0.38;;;12.40;99.90;;;;;;5022169;28;20384;-81
2022/09/03 10:15:23;;;;;;;0.50;0.40;;;12.50;99.90;;;;;;5020931;28;20490;-81
2022/09/03 10:18:01;;;;;;;0.50;0.50;;;12.50;99.90;;;;;;5022072;28;20391;-81
2022/09/03 10:21:06;;;;;;;0.75;0.40;;;12.40;99.90;;;;;;5021979;28;20399;-81
2022/09/03 10:23:52;;;;;;;0.60;0.50;;;12.40;99.90;;;;;;5021668;28;20515;-82
2022/09/03 10:26:28;;;;;;;1.00;0.50;;;12.40;99.90;;;;;;5010845;28;20437;-81
2022/09/03 10:29:01;;;;;;;1.25;0.50;;;12.50;99.90;;;;;;5010708;28;20932;-81
2022/09/03 10:31:36;;;;;;;0.60;0.40;;;12.40;99.90;;;;;;5009788;28;20792;-81
2022/09/03 10:34:35;;;;;;;0.73;0.40;;;12.40;99.90;;;;;;5018350;28;20871;-81
2022/09/03 10:37:27;;;;;;;0.50;0.50;;;12.30;99.90;;;;;;5019194;28;20473;-81
2022/09/03 10:40:29;;;;;;;1.10;0.50;;;12.20;99.90;;;;;;5053424;28;20437;-80
2022/09/03 10:43:22;;;;;;;0.93;0.40;;;12.20;99.90;;;;;;5024075;28;20405;-80
2022/09/03 10:46:42;;;;;;;5.40;0.50;;;12.20;99.90;;;;;;5021753;28;20401;-80
2022/09/03 10:49:27;;;;;;;0.93;0.43;;;12.20;99.90;;;;;;5079996;28;20425;-81
2022/09/03 10:52:16;;;;;;;1.17;0.50;;;12.20;99.90;;;;;;5025765;28;20394;-80
2022/09/03 10:55:02;;;;;;;0.40;0.40;;;12.10;99.90;;;;;;5023036;28;20895;-80
2022/09/03 10:57:29;;;;;;;0.50;0.50;;;11.90;99.90;;;;;;5019432;28;20765;-80
2022/09/03 11:00:09;;;;;;;0.63;0.40;;;11.90;99.90;;;;;;5018482;28;20410;-79
2022/09/03 11:03:11;;;;;;;1.15;0.43;;;11.80;99.90;;;;;;4997492;28;20404;-79
2022/09/03 11:06:00;;;;;;;1.25;0.50;;;11.70;99.90;;;;;;5020401;28;20398;-81
2022/09/03 11:08:35;;;;;;;1.20;0.50;;;11.70;99.90;;;;;;5015970;28;20406;-80
2022/09/03 11:11:25;;;;;;;0.85;0.55;;;11.70;99.90;;;;;;5019746;28;20420;-80
2022/09/03 11:13:58;;;;;;;0.45;0.40;;;11.70;99.90;;;;;;5017003;28;20406;-80
2022/09/03 11:16:32;;;;;;;0.40;0.40;;;11.80;99.90;;;;;;5018883;28;20402;-79
2022/09/03 11:19:10;;;;;;;1.00;0.47;;;12.10;99.90;;;;;;5009845;28;20403;-81
2022/09/03 11:21:42;;;;;;;1.10;0.50;;;12.30;99.90;;;;;;5014371;28;20446;-81
2022/09/03 11:24:31;;;;;;;0.50;0.47;;;12.50;99.90;;;;;;5009767;28;20464;-80
2022/09/03 11:27:11;;;;;;;0.75;0.50;;;12.80;99.90;;;;;;5020230;28;20429;-80
2022/09/03 11:29:48;;;;;;;0.30;0.30;;;12.90;99.90;;;;;;5035409;28;20890;-80
2022/09/03 11:32:22;;;;;;;0.50;0.40;;;13.10;99.90;;;;;;5018870;28;20439;-82
2022/09/03 11:34:53;;;;;;;1.02;0.40;;;13.20;99.90;;;;;;5020610;28;20413;-79
2022/09/03 11:37:26;;;;;;;0.60;0.43;;;13.60;99.90;;;;;;5019178;28;20410;-82
2022/09/03 11:40:10;;;;;;;0.40;0.40;;;13.70;99.90;;;;;;5009720;28;20398;-81
2022/09/03 11:42:40;;;;;;;1.40;0.30;;;13.60;99.90;;;;;;5009817;28;20419;-81
2022/09/03 11:45:22;;;;;;;0.80;0.50;;;13.40;99.90;;;;;;5009622;28;20433;-81
2022/09/03 11:47:53;;;;;;;0.63;0.40;;;13.30;99.90;;;;;;5009356;28;20498;-80
2022/09/03 11:50:23;;;;;;;1.60;0.60;;;13.20;99.90;;;;;;5013376;28;20415;-80
2022/09/03 11:53:06;;;;;;;0.40;0.40;;;13.10;99.90;;;;;;5018838;28;20422;-79
2022/09/03 11:56:01;;;;;;;0.68;0.47;;;13.00;99.90;;;;;;5017682;28;20902;-80
2022/09/03 11:58:39;;;;;;;0.40;0.40;;;12.90;99.90;;;;;;5015790;28;20437;-80
2022/09/03 12:01:12;;;;;;;1.43;0.40;;;12.80;99.90;;;;;;5026970;28;20396;-81
2022/09/03 12:03:53;;;;;;;15.48;1.98;;;12.70;99.90;;;;;;5016233;28;20885;-80
2022/09/03 12:06:48;;;;;;;1.03;0.60;;;12.70;99.90;;;;;;5022690;28;20888;-80
2022/09/03 12:09:25;;;;;;;1.90;0.43;;;12.70;99.90;;;;;;5019889;28;20831;-76
2022/09/03 12:12:30;;;;;;;1.17;0.40;;;12.60;99.90;;;;;;5009282;28;20390;-80
2022/09/03 12:15:13;;;;;;;2.65;0.40;;;12.60;99.90;;;;;;5008291;28;20395;-79
2022/09/03 12:18:19;;;;;;;2.42;0.60;;;12.60;99.90;;;;;;5012547;28;20463;-81
2022/09/03 12:20:59;;;;;;;2.88;0.45;;;12.60;99.90;;;;;;5012724;28;20413;-81
2022/09/03 12:23:39;;;;;;;2.90;0.50;;;12.80;99.90;;;;;;5011504;28;20418;-80
2022/09/03 12:26:13;;;;;;;0.73;0.40;;;13.20;99.90;;;;;;5011693;27;20482;-80
2022/09/03 12:28:44;;;;;;;0.93;0.40;;;13.70;99.90;;;;;;5020799;27;20502;-80
2022/09/03 12:31:24;;;;;;;0.90;0.40;;;13.90;99.90;;;;;;5018260;28;20960;-81
2022/09/03 12:33:55;;;;;;;0.68;0.57;;;14.30;99.90;;;;;;5008916;28;20869;-81
2022/09/03 12:36:23;;;;;;;0.88;0.40;;;14.10;99.90;;;;;;5008661;28;20433;-81
2022/09/03 12:38:51;;;;;;;0.53;0.40;;;14.50;99.90;;;;;;5013920;28;20952;-79
2022/09/03 12:42:00;;;;;;;1.60;0.50;;;14.50;99.90;;;;;;5011425;28;20410;-81
2022/09/03 12:44:34;;;;;;;8.75;3.78;;;14.10;99.90;;;;;;5024821;28;20756;-81
2022/09/03 12:47:13;;;;;;;0.95;0.73;;;14.00;99.90;;;;;;5019669;28;20397;-81
2022/09/03 12:50:12;;;;;;;0.90;0.40;;;14.40;99.90;;;;;;5014399;28;20394;-81
2022/09/03 12:52:58;;;;;;;1.33;0.40;;;14.70;99.90;;;;;;5020563;28;20448;-81
2022/09/03 12:55:41;;;;;;;1.15;0.40;;;14.80;99.90;;;;;;5019656;28;20922;-80
2022/09/03 12:58:15;;;;;;;5.43;0.60;;;14.90;99.90;;;;;;5019741;28;20444;-84
2022/09/03 13:00:55;;;;;;;3.50;0.60;;;15.20;99.90;;;;;;5046650;27;20419;-85
2022/09/03 13:03:38;;;;;;;1.25;0.50;;;15.40;99.90;;;;;;5022774;28;20405;-83
2022/09/03 13:06:09;;;;;;;0.50;0.50;;;15.40;99.90;;;;;;5023486;28;20398;-83
2022/09/03 13:08:49;;;;;;;1.20;0.40;;;15.30;99.90;;;;;;5017326;28;20787;-80
2022/09/03 13:11:20;;;;;;;0.60;0.50;;;15.20;99.90;;;;;;5019485;28;20402;-85
2022/09/03 13:14:08;;;;;;;2.88;0.50;;;15.40;99.90;;;;;;5014666;28;20460;-82
2022/09/03 13:16:43;;;;;;;1.75;0.50;;;15.50;99.90;;;;;;5043537;27;20492;-81
2022/09/03 13:19:18;;;;;;;1.58;0.65;;;15.50;99.90;;;;;;5023028;28;20814;-82
2022/09/03 13:22:31;;;;;;;1.48;0.50;;;15.50;99.90;;;;;;5015369;28;20437;-81
2022/09/03 13:25:19;;;;;;;1.20;0.40;;;15.80;99.90;;;;;;5016360;28;20434;-81
2022/09/03 13:28:03;;;;;;;0.77;0.40;;;16.00;99.90;;;;;;5019987;28;20394;-82
2022/09/03 13:30:45;;;;;;;0.73;0.60;;;15.90;99.90;;;;;;5022816;28;20449;-81
2022/09/03 13:33:42;;;;;;;1.60;0.47;;;16.00;99.90;;;;;;5013538;28;20836;-82
2022/09/03 13:36:21;;;;;;;0.70;0.50;;;16.00;99.90;;;;;;5023625;28;20407;-82
2022/09/03 13:39:05;;;;;;;0.47;0.43;;;16.10;99.90;;;;;;5020265;28;20407;-80
2022/09/03 13:41:48;;;;;;;1.08;0.50;;;16.30;99.90;;;;;;5019387;28;20403;-82
2022/09/03 13:44:23;;;;;;;0.77;0.50;;;15.80;99.90;;;;;;5020828;28;20924;-82